sensor_id;sensor_type;location;lat;lon;timestamp;pressure;altitude;pressure_sealevel;temperature;humidity
25664;BME280;13522;50.018;20.014;2023-03-20T00:00:31;98824.61;;;8.60;71.60
25664;BME280;13522;50.018;20.014;2023-03-20T00:03:48;98822.95;;;8.59;71.83
25664;BME280;13522;50.018;20.014;2023-03-20T00:07:00;98814.63;;;8.63;71.33
25664;BME280;13522;50.018;20.014;2023-03-20T00:10:16;98822.16;;;8.68;70.80
25664;BME280;13522;50.018;20.014;2023-03-20T00:13:28;98812.98;;;8.72;70.89
25664;BME280;13522;50.018;20.014;2023-03-20T00:16:42;98820.55;;;8.77;70.49
25664;BME280;13522;50.018;20.014;2023-03-20T00:19:55;98821.39;;;8.77;70.80
25664;BME280;13522;50.018;20.014;2023-03-20T00:23:08;98817.00;;;8.87;70.43
25664;BME280;13522;50.018;20.014;2023-03-20T00:26:20;98818.13;;;8.94;70.51
25664;BME280;13522;50.018;20.014;2023-03-20T00:29:35;98817.89;;;8.97;69.70
25664;BME280;13522;50.018;20.014;2023-03-20T00:32:47;98813.30;;;8.99;70.01
25664;BME280;13522;50.018;20.014;2023-03-20T00:36:00;98808.42;;;9.04;70.05
25664;BME280;13522;50.018;20.014;2023-03-20T00:39:12;98813.45;;;9.07;69.47
25664;BME280;13522;50.018;20.014;2023-03-20T00:42:24;98812.20;;;9.11;69.36
25664;BME280;13522;50.018;20.014;2023-03-20T00:45:37;98812.91;;;9.13;69.18
25664;BME280;13522;50.018;20.014;2023-03-20T00:48:49;98811.50;;;9.09;69.84
25664;BME280;13522;50.018;20.014;2023-03-20T00:52:03;98808.70;;;9.01;70.52
25664;BME280;13522;50.018;20.014;2023-03-20T00:55:18;98802.52;;;8.91;71.73
25664;BME280;13522;50.018;20.014;2023-03-20T00:58:33;98800.78;;;8.81;74.01
25664;BME280;13522;50.018;20.014;2023-03-20T01:01:45;98804.91;;;8.73;74.66
25664;BME280;13522;50.018;20.014;2023-03-20T01:04:58;98810.15;;;8.64;73.80
25664;BME280;13522;50.018;20.014;2023-03-20T01:08:19;98815.72;;;8.61;73.42
25664;BME280;13522;50.018;20.014;2023-03-20T01:11:32;98813.12;;;8.50;77.23
25664;BME280;13522;50.018;20.014;2023-03-20T01:14:46;98808.55;;;8.31;76.83
25664;BME280;13522;50.018;20.014;2023-03-20T01:18:01;98801.59;;;8.19;75.90
25664;BME280;13522;50.018;20.014;2023-03-20T01:21:13;98808.34;;;8.12;76.62
25664;BME280;13522;50.018;20.014;2023-03-20T01:24:26;98804.67;;;8.04;77.25
25664;BME280;13522;50.018;20.014;2023-03-20T01:27:38;98804.67;;;8.04;77.29
25664;BME280;13522;50.018;20.014;2023-03-20T01:30:53;98807.69;;;7.99;77.87
25664;BME280;13522;50.018;20.014;2023-03-20T01:34:07;98803.40;;;7.87;78.70
25664;BME280;13522;50.018;20.014;2023-03-20T01:37:24;98802.23;;;7.80;78.90
25664;BME280;13522;50.018;20.014;2023-03-20T01:40:45;98805.50;;;7.72;79.16
25664;BME280;13522;50.018;20.014;2023-03-20T01:44:06;98808.16;;;7.61;80.34
25664;BME280;13522;50.018;20.014;2023-03-20T01:47:23;98809.41;;;7.46;80.23
25664;BME280;13522;50.018;20.014;2023-03-20T01:50:38;98806.53;;;7.38;79.86
25664;BME280;13522;50.018;20.014;2023-03-20T01:53:53;98808.68;;;7.33;79.77
25664;BME280;13522;50.018;20.014;2023-03-20T01:57:12;98807.50;;;7.26;81.95
25664;BME280;13522;50.018;20.014;2023-03-20T02:00:27;98808.93;;;7.19;83.34
25664;BME280;13522;50.018;20.014;2023-03-20T02:03:40;98813.16;;;7.11;84.08
25664;BME280;13522;50.018;20.014;2023-03-20T02:06:59;98810.27;;;7.03;83.58
25664;BME280;13522;50.018;20.014;2023-03-20T02:10:17;98813.27;;;6.98;84.18
25664;BME280;13522;50.018;20.014;2023-03-20T02:13:38;98806.32;;;6.97;84.37
25664;BME280;13522;50.018;20.014;2023-03-20T02:16:51;98811.34;;;7.00;83.50
25664;BME280;13522;50.018;20.014;2023-03-20T02:20:11;98813.52;;;6.95;84.86
25664;BME280;13522;50.018;20.014;2023-03-20T02:23:53;98815.19;;;6.85;84.06
25664;BME280;13522;50.018;20.014;2023-03-20T02:27:31;98810.85;;;6.84;83.98
25664;BME280;13522;50.018;20.014;2023-03-20T02:42:16;98813.02;;;6.79;84.08
25664;BME280;13522;50.018;20.014;2023-03-20T02:45:35;98815.66;;;6.79;85.01
25664;BME280;13522;50.018;20.014;2023-03-20T02:48:55;98808.44;;;6.70;84.84
25664;BME280;13522;50.018;20.014;2023-03-20T02:52:13;98805.07;;;6.68;85.83
25664;BME280;13522;50.018;20.014;2023-03-20T02:55:31;98809.16;;;6.61;85.55
25664;BME280;13522;50.018;20.014;2023-03-20T02:58:50;98809.16;;;6.61;85.91
25664;BME280;13522;50.018;20.014;2023-03-20T03:02:08;98807.23;;;6.63;86.01
25664;BME280;13522;50.018;20.014;2023-03-20T03:05:26;98798.94;;;6.56;86.54
25664;BME280;13522;50.018;20.014;2023-03-20T03:08:43;98794.38;;;6.47;87.84
25664;BME280;13522;50.018;20.014;2023-03-20T03:12:00;98802.88;;;6.40;87.74
25664;BME280;13522;50.018;20.014;2023-03-20T03:15:18;98796.88;;;6.38;87.41
25664;BME280;13522;50.018;20.014;2023-03-20T03:18:34;98797.34;;;6.32;88.62
25664;BME280;13522;50.018;20.014;2023-03-20T03:21:49;98797.56;;;6.29;88.56
25664;BME280;13522;50.018;20.014;2023-03-20T03:25:01;98791.56;;;6.27;89.94
25664;BME280;13522;50.018;20.014;2023-03-20T03:28:21;98791.22;;;6.31;89.21
25664;BME280;13522;50.018;20.014;2023-03-20T03:31:35;98788.97;;;6.38;88.30
25664;BME280;13522;50.018;20.014;2023-03-20T03:34:49;98783.06;;;6.34;88.04
25664;BME280;13522;50.018;20.014;2023-03-20T03:38:15;98788.25;;;6.36;90.16
25664;BME280;13522;50.018;20.014;2023-03-20T03:41:23;98793.98;;;6.30;91.58
25664;BME280;13522;50.018;20.014;2023-03-20T03:44:43;98792.28;;;6.29;90.88
25664;BME280;13522;50.018;20.014;2023-03-20T03:48:00;98781.86;;;6.27;90.47
25664;BME280;13522;50.018;20.014;2023-03-20T03:51:19;98791.68;;;6.25;90.80
25664;BME280;13522;50.018;20.014;2023-03-20T03:54:39;98791.80;;;6.24;88.33
25664;BME280;13522;50.018;20.014;2023-03-20T03:58:07;98795.63;;;6.20;89.74
25664;BME280;13522;50.018;20.014;2023-03-20T04:01:23;98791.02;;;6.10;88.46
25664;BME280;13522;50.018;20.014;2023-03-20T04:04:43;98797.73;;;6.03;88.58
25664;BME280;13522;50.018;20.014;2023-03-20T04:08:00;98789.30;;;5.98;88.66
25664;BME280;13522;50.018;20.014;2023-03-20T04:11:16;98796.27;;;5.99;89.16
25664;BME280;13522;50.018;20.014;2023-03-20T04:14:30;98799.23;;;5.95;89.00
25664;BME280;13522;50.018;20.014;2023-03-20T04:17:42;98802.15;;;6.03;88.84
25664;BME280;13522;50.018;20.014;2023-03-20T04:20:55;98797.61;;;6.05;88.56
25664;BME280;13522;50.018;20.014;2023-03-20T04:24:08;98802.55;;;6.09;88.20
25664;BME280;13522;50.018;20.014;2023-03-20T04:27:21;98793.66;;;6.10;87.66
25664;BME280;13522;50.018;20.014;2023-03-20T04:30:34;98797.39;;;6.08;89.14
25664;BME280;13522;50.018;20.014;2023-03-20T04:33:46;98796.55;;;6.07;88.47
25664;BME280;13522;50.018;20.014;2023-03-20T04:37:06;98805.91;;;6.11;89.35
25664;BME280;13522;50.018;20.014;2023-03-20T04:40:23;98801.69;;;6.09;89.62
25664;BME280;13522;50.018;20.014;2023-03-20T04:43:37;98804.45;;;6.07;90.36
25664;BME280;13522;50.018;20.014;2023-03-20T04:46:49;98804.94;;;6.12;89.54
25664;BME280;13522;50.018;20.014;2023-03-20T04:50:03;98806.27;;;6.18;88.76
25664;BME280;13522;50.018;20.014;2023-03-20T04:53:17;98806.66;;;6.25;87.22
25664;BME280;13522;50.018;20.014;2023-03-20T04:56:32;98800.92;;;6.31;87.19
25664;BME280;13522;50.018;20.014;2023-03-20T04:59:46;98802.88;;;6.40;87.38
25664;BME280;13522;50.018;20.014;2023-03-20T05:02:58;98809.09;;;6.39;89.10
25664;BME280;13522;50.018;20.014;2023-03-20T05:06:11;98806.70;;;6.36;88.49
25664;BME280;13522;50.018;20.014;2023-03-20T05:09:24;98801.52;;;6.34;88.47
25664;BME280;13522;50.018;20.014;2023-03-20T05:12:38;98802.88;;;6.40;88.45
25664;BME280;13522;50.018;20.014;2023-03-20T05:16:11;98812.00;;;6.47;86.94
25664;BME280;13522;50.018;20.014;2023-03-20T05:19:25;98806.01;;;6.56;85.17
25664;BME280;13522;50.018;20.014;2023-03-20T05:22:40;98811.33;;;6.67;82.95
25664;BME280;13522;50.018;20.014;2023-03-20T05:26:11;98807.52;;;6.93;79.44
25664;BME280;13522;50.018;20.014;2023-03-20T05:29:34;98821.67;;;7.14;77.88
25664;BME280;13522;50.018;20.014;2023-03-20T05:32:50;98816.86;;;7.30;77.38
25664;BME280;13522;50.018;20.014;2023-03-20T05:36:08;98819.25;;;7.44;76.27
25664;BME280;13522;50.018;20.014;2023-03-20T05:39:35;98818.27;;;7.56;76.25
25664;BME280;13522;50.018;20.014;2023-03-20T05:42:52;98818.50;;;7.64;75.25
25664;BME280;13522;50.018;20.014;2023-03-20T05:46:07;98817.75;;;7.73;74.39
25664;BME280;13522;50.018;20.014;2023-03-20T05:49:27;98817.83;;;7.83;73.49
25664;BME280;13522;50.018;20.014;2023-03-20T05:52:51;98815.41;;;7.91;73.43
25664;BME280;13522;50.018;20.014;2023-03-20T05:56:09;98816.70;;;7.97;72.99
25664;BME280;13522;50.018;20.014;2023-03-20T05:59:23;98811.63;;;8.05;72.73
25664;BME280;13522;50.018;20.014;2023-03-20T06:02:41;98818.34;;;8.09;72.60
25664;BME280;13522;50.018;20.014;2023-03-20T06:06:05;98810.61;;;8.17;71.78
25664;BME280;13522;50.018;20.014;2023-03-20T06:09:19;98811.20;;;8.20;71.84
25664;BME280;13522;50.018;20.014;2023-03-20T06:12:31;98810.85;;;8.25;71.34
25664;BME280;13522;50.018;20.014;2023-03-20T06:15:44;98821.91;;;8.30;71.69
25664;BME280;13522;50.018;20.014;2023-03-20T06:18:56;98822.48;;;8.33;71.65
25664;BME280;13522;50.018;20.014;2023-03-20T06:22:09;98821.27;;;8.37;71.50
25664;BME280;13522;50.018;20.014;2023-03-20T06:25:21;98826.16;;;8.42;70.96
25664;BME280;13522;50.018;20.014;2023-03-20T06:28:33;98831.45;;;8.42;71.40
25664;BME280;13522;50.018;20.014;2023-03-20T06:31:46;98830.75;;;8.60;70.24
25664;BME280;13522;50.018;20.014;2023-03-20T06:35:03;98831.39;;;9.24;68.28
25664;BME280;13522;50.018;20.014;2023-03-20T06:38:17;98823.77;;;9.99;66.23
25664;BME280;13522;50.018;20.014;2023-03-20T06:41:30;98828.28;;;10.37;63.98
25664;BME280;13522;50.018;20.014;2023-03-20T06:44:44;98822.30;;;11.00;62.64
25664;BME280;13522;50.018;20.014;2023-03-20T06:47:59;98819.63;;;11.37;59.70
25664;BME280;13522;50.018;20.014;2023-03-20T06:51:11;98828.98;;;11.78;59.16
25664;BME280;13522;50.018;20.014;2023-03-20T06:54:25;98824.47;;;12.23;57.86
25664;BME280;13522;50.018;20.014;2023-03-20T06:57:38;98828.09;;;12.04;57.18
25664;BME280;13522;50.018;20.014;2023-03-20T07:00:52;98833.06;;;12.35;56.57
25664;BME280;13522;50.018;20.014;2023-03-20T07:04:05;98834.75;;;12.36;56.52
25664;BME280;13522;50.018;20.014;2023-03-20T07:07:19;98840.07;;;12.18;56.33
25664;BME280;13522;50.018;20.014;2023-03-20T07:10:32;98826.81;;;12.61;56.30
25664;BME280;13522;50.018;20.014;2023-03-20T07:13:44;98833.66;;;12.46;56.12
25664;BME280;13522;50.018;20.014;2023-03-20T07:16:58;98829.09;;;12.39;56.09
25664;BME280;13522;50.018;20.014;2023-03-20T07:20:13;98834.95;;;12.42;55.46
25664;BME280;13522;50.018;20.014;2023-03-20T07:23:25;98830.25;;;12.54;57.00
25664;BME280;13522;50.018;20.014;2023-03-20T07:26:40;98836.78;;;12.59;56.73
25664;BME280;13522;50.018;20.014;2023-03-20T07:29:52;98819.59;;;13.23;54.10
25664;BME280;13522;50.018;20.014;2023-03-20T07:33:04;98812.38;;;13.49;52.99
25664;BME280;13522;50.018;20.014;2023-03-20T07:36:17;98824.97;;;13.31;54.38
25664;BME280;13522;50.018;20.014;2023-03-20T07:39:30;98821.13;;;13.75;53.21
25664;BME280;13522;50.018;20.014;2023-03-20T07:43:03;98808.63;;;14.73;52.06
25664;BME280;13522;50.018;20.014;2023-03-20T07:46:34;98811.24;;;14.98;50.38
25664;BME280;13522;50.018;20.014;2023-03-20T07:49:46;98816.52;;;15.30;49.04
25664;BME280;13522;50.018;20.014;2023-03-20T07:52:58;98831.34;;;14.45;51.70
25664;BME280;13522;50.018;20.014;2023-03-20T07:56:11;98816.30;;;14.68;52.49
25664;BME280;13522;50.018;20.014;2023-03-20T07:59:23;98824.31;;;14.60;50.98
25664;BME280;13522;50.018;20.014;2023-03-20T08:02:36;98826.22;;;13.94;52.22
25664;BME280;13522;50.018;20.014;2023-03-20T08:05:48;98820.63;;;14.29;53.14
25664;BME280;13522;50.018;20.014;2023-03-20T08:09:01;98827.09;;;14.19;53.25
25664;BME280;13522;50.018;20.014;2023-03-20T08:12:14;98827.26;;;14.17;53.59
25664;BME280;13522;50.018;20.014;2023-03-20T08:15:26;98827.59;;;14.22;53.23
25664;BME280;13522;50.018;20.014;2023-03-20T08:18:38;98833.23;;;14.03;55.32
25664;BME280;13522;50.018;20.014;2023-03-20T08:21:51;98824.95;;;13.64;55.34
25664;BME280;13522;50.018;20.014;2023-03-20T08:25:04;98824.03;;;13.48;55.74
25664;BME280;13522;50.018;20.014;2023-03-20T08:28:19;98830.39;;;13.55;55.55
25664;BME280;13522;50.018;20.014;2023-03-20T08:31:33;98824.73;;;14.08;54.89
25664;BME280;13522;50.018;20.014;2023-03-20T08:34:45;98826.73;;;14.06;55.32
25664;BME280;13522;50.018;20.014;2023-03-20T08:37:57;98817.80;;;14.79;53.74
25664;BME280;13522;50.018;20.014;2023-03-20T08:41:09;98818.73;;;15.73;52.07
25664;BME280;13522;50.018;20.014;2023-03-20T08:44:22;98817.01;;;15.33;52.84
25664;BME280;13522;50.018;20.014;2023-03-20T08:47:34;98818.31;;;15.92;52.08
25664;BME280;13522;50.018;20.014;2023-03-20T08:50:46;98810.89;;;16.25;50.49
25664;BME280;13522;50.018;20.014;2023-03-20T08:53:58;98821.23;;;16.59;50.52
25664;BME280;13522;50.018;20.014;2023-03-20T08:57:10;98809.84;;;16.94;48.63
25664;BME280;13522;50.018;20.014;2023-03-20T09:00:25;98817.55;;;16.60;48.66
25664;BME280;13522;50.018;20.014;2023-03-20T09:03:38;98813.41;;;17.09;49.70
25664;BME280;13522;50.018;20.014;2023-03-20T09:06:51;98810.08;;;17.80;46.62
25664;BME280;13522;50.018;20.014;2023-03-20T09:10:07;98807.77;;;18.12;45.97
25664;BME280;13522;50.018;20.014;2023-03-20T09:13:21;98804.23;;;18.69;45.18
25664;BME280;13522;50.018;20.014;2023-03-20T09:16:33;98805.66;;;18.44;45.15
25664;BME280;13522;50.018;20.014;2023-03-20T09:19:45;98796.66;;;19.07;44.06
25664;BME280;13522;50.018;20.014;2023-03-20T09:22:58;98784.90;;;19.42;44.65
25664;BME280;13522;50.018;20.014;2023-03-20T09:26:20;98790.81;;;19.65;44.28
25664;BME280;13522;50.018;20.014;2023-03-20T09:29:39;98781.15;;;20.44;43.92
25664;BME280;13522;50.018;20.014;2023-03-20T09:32:52;98796.83;;;20.14;44.82
25664;BME280;13522;50.018;20.014;2023-03-20T09:36:19;98788.42;;;20.50;45.67
25664;BME280;13522;50.018;20.014;2023-03-20T09:39:36;98785.53;;;21.17;45.15
25664;BME280;13522;50.018;20.014;2023-03-20T09:42:52;98779.72;;;21.77;44.42
25664;BME280;13522;50.018;20.014;2023-03-20T09:46:16;98791.52;;;21.32;43.86
25664;BME280;13522;50.018;20.014;2023-03-20T09:49:42;98796.39;;;19.57;46.48
25664;BME280;13522;50.018;20.014;2023-03-20T09:53:03;98808.81;;;18.33;49.88
25664;BME280;13522;50.018;20.014;2023-03-20T09:56:22;98822.87;;;17.78;52.72
25664;BME280;13522;50.018;20.014;2023-03-20T09:59:36;98822.13;;;17.40;53.57
25664;BME280;13522;50.018;20.014;2023-03-20T10:02:52;98818.20;;;16.99;55.85
25664;BME280;13522;50.018;20.014;2023-03-20T10:06:11;98824.50;;;16.69;56.32
25664;BME280;13522;50.018;20.014;2023-03-20T10:09:21;98824.56;;;16.38;56.61
25664;BME280;13522;50.018;20.014;2023-03-20T10:12:51;98820.72;;;16.10;57.05
25664;BME280;13522;50.018;20.014;2023-03-20T10:16:11;98818.04;;;16.32;56.15
25664;BME280;13522;50.018;20.014;2023-03-20T10:19:29;98819.08;;;16.54;55.93
25664;BME280;13522;50.018;20.014;2023-03-20T10:22:44;98823.83;;;16.21;56.94
25664;BME280;13522;50.018;20.014;2023-03-20T10:26:01;98816.97;;;16.50;57.55
25664;BME280;13522;50.018;20.014;2023-03-20T10:29:20;98820.14;;;16.45;56.91
25664;BME280;13522;50.018;20.014;2023-03-20T10:32:40;98808.03;;;16.26;57.33
25664;BME280;13522;50.018;20.014;2023-03-20T10:36:00;98801.67;;;16.27;58.04
25664;BME280;13522;50.018;20.014;2023-03-20T10:39:21;98811.98;;;16.16;58.67
25664;BME280;13522;50.018;20.014;2023-03-20T10:42:42;98789.09;;;16.05;58.75
25664;BME280;13522;50.018;20.014;2023-03-20T10:45:59;98800.57;;;16.82;57.08
25664;BME280;13522;50.018;20.014;2023-03-20T10:49:18;98786.41;;;17.54;54.81
25664;BME280;13522;50.018;20.014;2023-03-20T10:52:37;98789.16;;;17.17;56.31
25664;BME280;13522;50.018;20.014;2023-03-20T10:55:50;98792.67;;;17.03;57.43
25664;BME280;13522;50.018;20.014;2023-03-20T10:59:07;98776.86;;;17.66;57.44
25664;BME280;13522;50.018;20.014;2023-03-20T11:02:26;98769.56;;;17.96;58.07
25664;BME280;13522;50.018;20.014;2023-03-20T11:05:40;98776.69;;;17.89;57.01
25664;BME280;13522;50.018;20.014;2023-03-20T11:08:54;98774.16;;;17.66;58.82
25664;BME280;13522;50.018;20.014;2023-03-20T11:12:15;98781.58;;;17.35;59.93
25664;BME280;13522;50.018;20.014;2023-03-20T11:15:32;98787.08;;;16.90;60.74
25664;BME280;13522;50.018;20.014;2023-03-20T11:18:44;98779.84;;;16.76;61.95
25664;BME280;13522;50.018;20.014;2023-03-20T11:22:05;98773.23;;;17.01;62.92
25664;BME280;13522;50.018;20.014;2023-03-20T11:25:30;98766.54;;;16.82;62.47
25664;BME280;13522;50.018;20.014;2023-03-20T11:28:50;98762.72;;;16.39;63.95
25664;BME280;13522;50.018;20.014;2023-03-20T11:32:15;98776.36;;;16.07;65.36
25664;BME280;13522;50.018;20.014;2023-03-20T11:35:30;98773.16;;;15.81;67.23
25664;BME280;13522;50.018;20.014;2023-03-20T11:38:46;98780.32;;;15.58;69.09
25664;BME280;13522;50.018;20.014;2023-03-20T11:42:00;98779.19;;;15.52;69.91
25664;BME280;13522;50.018;20.014;2023-03-20T11:45:17;98779.69;;;15.40;70.75
25664;BME280;13522;50.018;20.014;2023-03-20T11:48:39;98781.53;;;15.47;71.03
25664;BME280;13522;50.018;20.014;2023-03-20T11:51:52;98769.91;;;15.63;71.23
25664;BME280;13522;50.018;20.014;2023-03-20T11:55:21;98768.14;;;15.47;71.35
25664;BME280;13522;50.018;20.014;2023-03-20T11:58:34;98774.30;;;15.56;71.33
25664;BME280;13522;50.018;20.014;2023-03-20T12:01:50;98769.98;;;15.47;72.56
25664;BME280;13522;50.018;20.014;2023-03-20T12:05:18;98769.16;;;15.77;72.10
25664;BME280;13522;50.018;20.014;2023-03-20T12:08:40;98755.61;;;16.46;68.80
25664;BME280;13522;50.018;20.014;2023-03-20T12:11:56;98754.16;;;16.96;66.76
25664;BME280;13522;50.018;20.014;2023-03-20T12:15:16;98747.97;;;17.54;64.90
25664;BME280;13522;50.018;20.014;2023-03-20T12:18:33;98741.84;;;18.16;64.76
25664;BME280;13522;50.018;20.014;2023-03-20T12:21:51;98741.41;;;18.13;61.98
25664;BME280;13522;50.018;20.014;2023-03-20T12:25:15;98741.20;;;18.14;62.18
25664;BME280;13522;50.018;20.014;2023-03-20T12:28:35;98727.97;;;18.55;61.15
25664;BME280;13522;50.018;20.014;2023-03-20T12:31:51;98727.81;;;18.42;60.83
25664;BME280;13522;50.018;20.014;2023-03-20T12:35:08;98734.83;;;18.58;61.34
25664;BME280;13522;50.018;20.014;2023-03-20T12:38:25;98732.84;;;18.45;61.11
25664;BME280;13522;50.018;20.014;2023-03-20T12:41:44;98732.38;;;18.42;61.52
25664;BME280;13522;50.018;20.014;2023-03-20T12:45:05;98727.33;;;18.81;61.66
25664;BME280;13522;50.018;20.014;2023-03-20T12:48:38;98720.53;;;18.57;61.93
25664;BME280;13522;50.018;20.014;2023-03-20T12:52:00;98722.53;;;18.49;61.00
25664;BME280;13522;50.018;20.014;2023-03-20T12:55:37;98726.59;;;17.81;62.74
25664;BME280;13522;50.018;20.014;2023-03-20T12:58:55;98733.97;;;17.44;64.99
25664;BME280;13522;50.018;20.014;2023-03-20T13:02:21;98725.84;;;17.08;65.78
25664;BME280;13522;50.018;20.014;2023-03-20T13:05:43;98731.69;;;16.97;66.92
25664;BME280;13522;50.018;20.014;2023-03-20T13:09:13;98735.00;;;16.70;67.30
25664;BME280;13522;50.018;20.014;2023-03-20T13:12:41;98735.69;;;16.49;67.92
25664;BME280;13522;50.018;20.014;2023-03-20T13:16:04;98726.84;;;16.40;68.04
25664;BME280;13522;50.018;20.014;2023-03-20T13:19:26;98719.71;;;16.33;69.04
25664;BME280;13522;50.018;20.014;2023-03-20T13:22:47;98721.68;;;16.16;69.39
25664;BME280;13522;50.018;20.014;2023-03-20T13:26:18;98721.12;;;16.06;70.65
25664;BME280;13522;50.018;20.014;2023-03-20T13:29:43;98723.30;;;16.25;69.70
25664;BME280;13522;50.018;20.014;2023-03-20T13:33:02;98725.39;;;16.15;68.83
25664;BME280;13522;50.018;20.014;2023-03-20T13:36:26;98715.32;;;16.17;68.58
25664;BME280;13522;50.018;20.014;2023-03-20T13:39:57;98715.08;;;16.50;67.48
25664;BME280;13522;50.018;20.014;2023-03-20T13:43:12;98710.10;;;16.76;67.22
25664;BME280;13522;50.018;20.014;2023-03-20T13:46:34;98708.17;;;16.84;68.52
25664;BME280;13522;50.018;20.014;2023-03-20T13:49:52;98711.78;;;17.06;66.73
25664;BME280;13522;50.018;20.014;2023-03-20T13:53:14;98701.79;;;17.00;66.92
25664;BME280;13522;50.018;20.014;2023-03-20T13:56:37;98702.54;;;17.08;67.60
25664;BME280;13522;50.018;20.014;2023-03-20T14:00:00;98713.01;;;17.03;68.40
25664;BME280;13522;50.018;20.014;2023-03-20T14:03:23;98705.61;;;17.05;68.31
25664;BME280;13522;50.018;20.014;2023-03-20T14:06:50;98709.56;;;16.66;69.20
25664;BME280;13522;50.018;20.014;2023-03-20T14:10:39;98705.85;;;16.67;69.15
25664;BME280;13522;50.018;20.014;2023-03-20T14:13:54;98705.20;;;16.42;69.07
25664;BME280;13522;50.018;20.014;2023-03-20T14:17:19;98709.66;;;16.12;70.20
25664;BME280;13522;50.018;20.014;2023-03-20T14:20:34;98710.09;;;16.01;70.16
25664;BME280;13522;50.018;20.014;2023-03-20T14:23:51;98708.49;;;15.92;70.17
25664;BME280;13522;50.018;20.014;2023-03-20T14:27:17;98704.38;;;15.82;70.74
25664;BME280;13522;50.018;20.014;2023-03-20T14:30:43;98709.36;;;15.85;70.98
25664;BME280;13522;50.018;20.014;2023-03-20T14:34:06;98709.91;;;15.80;71.97
25664;BME280;13522;50.018;20.014;2023-03-20T14:37:44;98708.17;;;15.65;71.30
25664;BME280;13522;50.018;20.014;2023-03-20T14:41:04;98706.06;;;15.52;72.41
25664;BME280;13522;50.018;20.014;2023-03-20T14:44:25;98705.11;;;15.45;72.75
25664;BME280;13522;50.018;20.014;2023-03-20T14:47:47;98711.47;;;15.36;73.94
25664;BME280;13522;50.018;20.014;2023-03-20T14:51:19;98716.02;;;15.27;75.60
25664;BME280;13522;50.018;20.014;2023-03-20T14:54:38;98718.95;;;15.02;76.20
25664;BME280;13522;50.018;20.014;2023-03-20T14:57:51;98716.82;;;14.97;77.23
25664;BME280;13522;50.018;20.014;2023-03-20T15:01:05;98716.48;;;14.92;78.00
25664;BME280;13522;50.018;20.014;2023-03-20T15:04:35;98712.69;;;14.78;79.35
25664;BME280;13522;50.018;20.014;2023-03-20T15:07:48;98715.06;;;14.65;80.04
25664;BME280;13522;50.018;20.014;2023-03-20T15:11:04;98717.73;;;14.65;80.17
25664;BME280;13522;50.018;20.014;2023-03-20T15:14:21;98713.07;;;14.59;79.90
25664;BME280;13522;50.018;20.014;2023-03-20T15:17:38;98716.25;;;14.55;80.67
25664;BME280;13522;50.018;20.014;2023-03-20T15:20:53;98720.41;;;14.65;79.19
25664;BME280;13522;50.018;20.014;2023-03-20T15:24:13;98719.07;;;14.69;79.52
25664;BME280;13522;50.018;20.014;2023-03-20T15:27:28;98711.17;;;14.76;78.90
25664;BME280;13522;50.018;20.014;2023-03-20T15:30:42;98702.49;;;14.74;79.67
25664;BME280;13522;50.018;20.014;2023-03-20T15:34:00;98707.03;;;14.73;78.41
25664;BME280;13522;50.018;20.014;2023-03-20T15:37:16;98712.51;;;14.80;78.47
25664;BME280;13522;50.018;20.014;2023-03-20T15:40:32;98716.69;;;14.83;78.12
25664;BME280;13522;50.018;20.014;2023-03-20T15:43:49;98709.66;;;14.82;79.00
25664;BME280;13522;50.018;20.014;2023-03-20T15:47:06;98719.07;;;14.69;78.94
25664;BME280;13522;50.018;20.014;2023-03-20T15:50:23;98718.43;;;14.51;80.03
25664;BME280;13522;50.018;20.014;2023-03-20T15:53:37;98721.11;;;14.43;80.93
25664;BME280;13522;50.018;20.014;2023-03-20T15:56:53;98726.11;;;14.38;81.12
25664;BME280;13522;50.018;20.014;2023-03-20T16:00:12;98719.29;;;14.28;81.64
25664;BME280;13522;50.018;20.014;2023-03-20T16:03:28;98730.25;;;14.17;82.22
25664;BME280;13522;50.018;20.014;2023-03-20T16:06:51;98735.45;;;14.10;82.39
25664;BME280;13522;50.018;20.014;2023-03-20T16:10:14;98734.25;;;14.05;81.39
25664;BME280;13522;50.018;20.014;2023-03-20T16:13:34;98732.92;;;14.09;81.48
25664;BME280;13522;50.018;20.014;2023-03-20T16:16:48;98741.46;;;14.12;80.54
25664;BME280;13522;50.018;20.014;2023-03-20T16:20:02;98743.29;;;14.12;80.40
25664;BME280;13522;50.018;20.014;2023-03-20T16:23:21;98744.45;;;14.09;80.69
25664;BME280;13522;50.018;20.014;2023-03-20T16:26:41;98739.28;;;14.08;80.79
25664;BME280;13522;50.018;20.014;2023-03-20T16:29:55;98742.80;;;14.08;80.22
25664;BME280;13522;50.018;20.014;2023-03-20T16:33:12;98748.11;;;13.92;81.37
25664;BME280;13522;50.018;20.014;2023-03-20T16:36:31;98751.77;;;13.91;81.59
25664;BME280;13522;50.018;20.014;2023-03-20T16:39:43;98750.92;;;13.90;81.66
25664;BME280;13522;50.018;20.014;2023-03-20T16:42:56;98750.92;;;13.90;81.48
25664;BME280;13522;50.018;20.014;2023-03-20T16:46:10;98748.42;;;13.89;81.98
25664;BME280;13522;50.018;20.014;2023-03-20T16:50:14;98748.77;;;13.86;82.08
25664;BME280;13522;50.018;20.014;2023-03-20T16:53:35;98753.94;;;13.87;81.86
25664;BME280;13522;50.018;20.014;2023-03-20T16:56:54;98751.09;;;13.89;81.92
25664;BME280;13522;50.018;20.014;2023-03-20T17:00:22;98753.61;;;13.82;82.85
25664;BME280;13522;50.018;20.014;2023-03-20T17:03:44;98746.08;;;13.78;83.00
25664;BME280;13522;50.018;20.014;2023-03-20T17:07:00;98750.08;;;13.74;83.18
25664;BME280;13522;50.018;20.014;2023-03-20T17:10:21;98741.40;;;13.72;83.23
25664;BME280;13522;50.018;20.014;2023-03-20T17:13:35;98740.05;;;13.68;83.21
25664;BME280;13522;50.018;20.014;2023-03-20T17:16:48;98751.03;;;13.65;83.83
25664;BME280;13522;50.018;20.014;2023-03-20T17:20:05;98735.87;;;13.65;83.85
25664;BME280;13522;50.018;20.014;2023-03-20T17:23:22;98741.20;;;13.65;84.01
25664;BME280;13522;50.018;20.014;2023-03-20T17:26:35;98736.54;;;13.67;84.00